createdAt,value
2017-11-28T00:01:18.445Z,90.80
2017-11-28T00:03:46.244Z,90.90
2017-11-28T00:06:13.997Z,92.40
2017-11-28T00:08:41.761Z,91.00
2017-11-28T00:11:09.580Z,91.30
2017-11-28T00:13:38.116Z,91.20
2017-11-28T00:16:06.656Z,91.60
2017-11-28T00:18:34.472Z,91.90
2017-11-28T00:21:02.228Z,90.80
2017-11-28T00:23:29.975Z,91.10
2017-11-28T00:25:57.815Z,91.60
2017-11-28T00:28:25.610Z,92.00
2017-11-28T00:30:53.368Z,92.30
2017-11-28T00:33:21.343Z,92.00
2017-11-28T00:35:49.113Z,93.20
2017-11-28T00:38:16.863Z,92.90
2017-11-28T00:40:44.676Z,92.30
2017-11-28T00:43:13.221Z,93.20
2017-11-28T00:45:40.979Z,93.20
2017-11-28T00:48:08.789Z,93.50
2017-11-28T00:50:36.614Z,94.40
2017-11-28T00:53:04.369Z,94.00
2017-11-28T00:55:32.179Z,93.70
2017-11-28T00:57:59.947Z,93.90
2017-11-28T01:00:27.692Z,94.30
2017-11-28T01:02:55.645Z,94.30
2017-11-28T01:05:24.168Z,94.60
2017-11-28T01:07:51.943Z,94.60
2017-11-28T01:10:19.747Z,95.30
2017-11-28T01:12:48.270Z,96.40
2017-11-28T01:15:16.011Z,96.40
2017-11-28T01:17:43.840Z,96.90
2017-11-28T01:20:11.589Z,96.70
2017-11-28T01:22:39.332Z,97.20
2017-11-28T01:25:07.146Z,96.30
2017-11-28T01:27:35.691Z,97.50
2017-11-28T01:30:03.445Z,97.60
2017-11-28T01:32:32.070Z,97.40
2017-11-28T01:35:00.594Z,97.40
2017-11-28T01:37:28.351Z,97.40
2017-11-28T01:39:56.179Z,97.30
2017-11-28T01:42:23.931Z,96.70
2017-11-28T01:44:52.453Z,96.30
2017-11-28T01:47:20.274Z,96.30
2017-11-28T01:49:48.042Z,96.00
2017-11-28T01:52:16.577Z,95.60
2017-11-28T01:54:44.382Z,95.60
2017-11-28T01:57:12.908Z,95.70
2017-11-28T01:59:40.663Z,95.70
2017-11-28T02:02:08.471Z,95.20
2017-11-28T02:04:37.008Z,96.00
2017-11-28T02:07:04.788Z,95.70
2017-11-28T02:09:32.623Z,96.10
2017-11-28T02:12:00.379Z,96.80
2017-11-28T02:14:28.160Z,95.90
2017-11-28T02:16:55.994Z,95.40
2017-11-28T02:19:23.756Z,95.40
2017-11-28T02:21:51.528Z,95.90
2017-11-28T02:24:19.336Z,95.80
2017-11-28T02:26:47.087Z,95.80
2017-11-28T02:29:14.840Z,95.50
2017-11-28T02:31:42.649Z,96.40
2017-11-28T02:34:11.167Z,97.30
2017-11-28T02:36:38.923Z,97.30
2017-11-28T02:39:06.736Z,97.70
2017-11-28T02:41:35.253Z,97.30
2017-11-28T02:44:04.699Z,97.30
2017-11-28T02:46:32.620Z,98.30
2017-11-28T03:02:33.811Z,98.50
2017-11-28T03:05:02.332Z,98.70
2017-11-28T03:07:43.039Z,98.60
2017-11-28T03:10:24.015Z,99.20
2017-11-28T03:12:51.966Z,99.20
2017-11-28T03:15:31.435Z,98.20
2017-11-28T03:18:00.783Z,98.90
2017-11-28T03:20:37.985Z,98.80
2017-11-28T03:36:30.533Z,96.40
2017-11-28T03:38:58.313Z,97.60
2017-11-28T03:41:26.070Z,96.60
2017-11-28T03:43:53.927Z,96.00
2017-11-28T03:46:22.635Z,96.20
2017-11-28T03:48:50.396Z,96.10
2017-11-28T03:51:18.216Z,96.30
2017-11-28T03:53:46.736Z,95.50
2017-11-28T03:56:14.501Z,95.40
2017-11-28T03:58:42.312Z,95.80
2017-11-28T04:01:10.071Z,95.80
2017-11-28T04:03:37.828Z,94.50
2017-11-28T04:06:05.642Z,95.00
2017-11-28T04:08:33.406Z,95.10
2017-11-28T04:11:01.160Z,95.00
2017-11-28T04:13:28.963Z,96.60
2017-11-28T04:15:56.737Z,95.60
2017-11-28T04:18:24.492Z,94.70
2017-11-28T04:20:52.323Z,95.60
2017-11-28T04:23:20.075Z,95.50
2017-11-28T04:25:47.840Z,95.10
2017-11-28T04:28:15.655Z,94.10
2017-11-28T04:30:43.431Z,94.60
2017-11-28T04:33:11.943Z,93.20
2017-11-28T04:35:39.755Z,93.20
2017-11-28T04:38:07.521Z,94.10
2017-11-28T04:43:17.448Z,94.40
2017-11-28T04:45:45.240Z,94.60
2017-11-28T04:48:12.999Z,94.50
2017-11-28T04:50:40.808Z,94.60
2017-11-28T04:53:08.558Z,95.40
2017-11-28T04:55:36.307Z,95.20
2017-11-28T04:58:04.879Z,93.80
2017-11-28T05:00:33.400Z,92.70
2017-11-28T05:03:01.152Z,92.70
2017-11-28T05:05:28.960Z,92.50
2017-11-28T05:07:56.726Z,94.30
2017-11-28T05:10:24.476Z,93.40
2017-11-28T05:12:52.284Z,93.40
2017-11-28T05:15:20.051Z,94.70
2017-11-28T05:17:47.809Z,94.80
2017-11-28T05:20:15.628Z,95.30
2017-11-28T05:22:43.401Z,95.20
2017-11-28T05:25:11.158Z,95.80
2017-11-28T05:27:38.965Z,95.80
2017-11-28T05:30:06.720Z,97.40
2017-11-28T05:32:34.471Z,96.30
2017-11-28T05:35:03.049Z,95.50
2017-11-28T05:37:31.577Z,95.40
2017-11-28T05:39:59.327Z,95.40
2017-11-28T05:42:27.137Z,95.60
2017-11-28T05:44:54.911Z,95.80
2017-11-28T05:47:23.426Z,95.20
2017-11-28T05:49:51.243Z,95.20
2017-11-28T05:52:18.996Z,95.10
2017-11-28T05:54:46.744Z,96.60
2017-11-28T05:57:14.559Z,95.80
2017-11-28T05:59:42.312Z,96.20
2017-11-28T06:02:10.876Z,98.50
2017-11-28T06:04:38.688Z,98.60
2017-11-28T06:07:06.440Z,97.50
2017-11-28T06:09:34.203Z,97.40
2017-11-28T06:12:02.015Z,97.90
2017-11-28T06:14:29.776Z,99.20
2017-11-28T06:16:57.528Z,99.60
2017-11-28T06:19:25.365Z,99.90
2017-11-28T06:21:53.115Z,98.30
2017-11-28T06:24:20.898Z,99.80
2017-11-28T06:26:48.726Z,98.30
2017-11-28T06:29:16.497Z,98.90
2017-11-28T06:31:44.264Z,98.40
2017-11-28T06:34:12.079Z,98.10
2017-11-28T06:36:39.856Z,98.00
2017-11-28T06:39:08.376Z,99.60
2017-11-28T06:41:36.192Z,99.60
2017-11-28T06:44:04.715Z,98.50
2017-11-28T06:46:32.486Z,98.50
2017-11-28T06:49:00.306Z,97.90
2017-11-28T06:51:28.824Z,98.20
2017-11-28T06:53:56.572Z,98.30
2017-11-28T06:56:24.384Z,98.20
2017-11-28T06:58:52.158Z,97.60
2017-11-28T07:01:20.675Z,97.80
2017-11-28T07:03:48.493Z,97.50
2017-11-28T07:06:16.244Z,97.30
2017-11-28T07:08:43.997Z,96.80
2017-11-28T07:11:11.832Z,98.20
2017-11-28T07:13:39.595Z,99.10
2017-11-28T07:16:07.351Z,98.80
2017-11-28T07:18:35.164Z,98.60
2017-11-28T07:21:02.930Z,99.40
2017-11-28T07:23:31.459Z,98.00
2017-11-28T07:25:59.271Z,98.00
2017-11-28T07:28:27.031Z,97.60
2017-11-28T07:30:54.794Z,96.70
2017-11-28T07:33:22.623Z,95.60
2017-11-28T07:35:50.376Z,95.90
2017-11-28T07:38:18.147Z,95.50
2017-11-28T07:40:45.998Z,94.40
2017-11-28T07:43:13.781Z,93.00
2017-11-28T07:45:41.538Z,92.60
2017-11-28T07:48:09.356Z,92.90
2017-11-28T07:50:37.115Z,93.10
2017-11-28T07:53:05.648Z,93.20
2017-11-28T07:55:34.718Z,92.40
2017-11-28T07:58:09.365Z,92.40
2017-11-28T08:00:37.195Z,93.60
2017-11-28T08:03:04.963Z,94.40
2017-11-28T08:05:32.743Z,92.90
2017-11-28T08:08:00.660Z,93.10
2017-11-28T08:10:29.176Z,93.00
2017-11-28T08:12:57.214Z,92.90
2017-11-28T08:15:25.057Z,92.90
2017-11-28T08:17:52.836Z,92.40
2017-11-28T08:20:21.362Z,92.70
2017-11-28T08:22:49.187Z,92.80
2017-11-28T08:25:17.001Z,92.50
2017-11-28T08:27:44.784Z,92.70
2017-11-28T08:30:12.603Z,92.00
2017-11-28T08:32:40.368Z,91.30
2017-11-28T08:35:08.138Z,92.20
2017-11-28T08:37:35.972Z,92.00
2017-11-28T08:40:03.751Z,92.60
2017-11-28T08:42:31.515Z,94.10
2017-11-28T08:44:59.340Z,93.70
2017-11-28T08:47:27.883Z,95.80
2017-11-28T08:49:55.659Z,95.80
2017-11-28T08:52:23.481Z,97.20
2017-11-28T08:54:51.240Z,97.10
2017-11-28T08:57:18.992Z,96.70
2017-11-28T08:59:46.833Z,95.50
2017-11-28T09:02:15.351Z,94.40
2017-11-28T09:04:43.111Z,94.40
2017-11-28T09:07:10.924Z,94.40
2017-11-28T09:09:39.442Z,92.60
2017-11-28T09:12:07.191Z,92.60
2017-11-28T09:14:35.000Z,91.70
2017-11-28T09:17:02.755Z,91.70
2017-11-28T09:19:30.504Z,91.30
2017-11-28T09:21:58.324Z,89.80
2017-11-28T09:24:26.847Z,90.40
2017-11-28T09:26:54.605Z,90.50
2017-11-28T09:29:22.433Z,89.50
2017-11-28T09:31:50.219Z,88.20
2017-11-28T09:34:17.992Z,86.20
2017-11-28T09:36:45.811Z,87.30
2017-11-28T09:39:14.329Z,88.40
2017-11-28T09:41:42.085Z,88.40
2017-11-28T09:44:09.903Z,87.20
2017-11-28T09:46:38.441Z,87.00
2017-11-28T09:49:06.204Z,86.80
2017-11-28T09:51:34.028Z,88.60
2017-11-28T09:54:01.794Z,91.00
2017-11-28T09:56:29.578Z,91.30
2017-11-28T09:58:57.416Z,91.50
2017-11-28T10:01:25.222Z,91.30
2017-11-28T10:03:52.987Z,90.00
2017-11-28T10:06:20.840Z,89.30
2017-11-28T10:08:48.595Z,88.20
2017-11-28T10:11:16.375Z,88.10
2017-11-28T10:13:44.204Z,89.50
2017-11-28T10:16:12.090Z,89.20
2017-11-28T10:18:39.845Z,90.80
2017-11-28T10:21:08.535Z,91.80
2017-11-28T10:23:36.299Z,91.90
2017-11-28T10:26:04.069Z,91.30
2017-11-28T10:28:31.887Z,92.90
2017-11-28T10:30:59.639Z,93.10
2017-11-28T10:33:28.207Z,95.80
2017-11-28T10:35:56.787Z,94.80
2017-11-28T10:38:25.330Z,95.80
2017-11-28T10:40:53.103Z,95.90
2017-11-28T10:43:20.919Z,96.60
2017-11-28T10:45:48.680Z,94.40
2017-11-28T10:48:16.798Z,92.90
2017-11-28T10:50:44.692Z,93.30
2017-11-28T10:53:13.216Z,90.30
2017-11-28T10:55:40.972Z,90.30
2017-11-28T10:58:08.778Z,90.40
2017-11-28T11:00:36.529Z,88.00
2017-11-28T11:03:04.291Z,84.30
2017-11-28T11:05:32.108Z,82.20
2017-11-28T11:08:05.218Z,81.50
2017-11-28T11:10:38.943Z,81.20
2017-11-28T11:13:06.744Z,78.20
2017-11-28T11:15:35.269Z,79.40
2017-11-28T11:18:03.135Z,79.50
2017-11-28T11:20:30.934Z,79.90
2017-11-28T11:22:59.496Z,81.10
2017-11-28T11:25:27.339Z,81.10
2017-11-28T11:27:55.107Z,79.30
2017-11-28T11:30:22.895Z,78.90
2017-11-28T11:32:50.740Z,81.90
2017-11-28T11:35:18.509Z,77.50
2017-11-28T11:37:46.280Z,78.60
2017-11-28T11:40:14.093Z,83.10
2017-11-28T11:42:41.849Z,79.70
2017-11-28T11:45:09.598Z,81.80
2017-11-28T11:47:37.423Z,80.80
2017-11-28T11:50:05.176Z,80.00
2017-11-28T11:52:32.968Z,80.90
2017-11-28T11:55:01.577Z,80.90
2017-11-28T11:57:29.331Z,80.90
2017-11-28T11:59:57.086Z,83.80
2017-11-28T12:02:24.956Z,82.50
2017-11-28T12:04:52.712Z,82.40
2017-11-28T12:07:21.257Z,81.60
2017-11-28T12:09:49.084Z,81.70
2017-11-28T12:12:16.842Z,80.30
2017-11-28T12:14:44.600Z,80.90
2017-11-28T12:17:12.416Z,82.30
2017-11-28T12:19:40.176Z,81.10
2017-11-28T12:22:08.716Z,81.40
2017-11-28T12:24:36.523Z,81.10
2017-11-28T12:27:04.292Z,80.30
2017-11-28T12:29:32.812Z,81.10
2017-11-28T12:32:00.635Z,81.10
2017-11-28T12:34:29.171Z,85.50
2017-11-28T12:36:56.955Z,85.50
2017-11-28T12:39:24.783Z,84.50
2017-11-28T12:41:52.544Z,82.80
2017-11-28T12:44:20.321Z,81.80
2017-11-28T12:46:48.131Z,83.20
2017-11-28T12:49:15.927Z,83.60
2017-11-28T12:51:43.683Z,86.30
2017-11-28T12:54:11.517Z,89.90
2017-11-28T12:56:46.524Z,87.10
2017-11-28T12:59:14.363Z,87.10
2017-11-28T13:01:42.154Z,85.30
2017-11-28T13:04:09.926Z,87.80
2017-11-28T13:06:38.519Z,89.30
2017-11-28T13:09:07.056Z,88.20
2017-11-28T13:11:34.804Z,88.30
2017-11-28T13:14:02.628Z,87.40
2017-11-28T13:16:31.155Z,91.70
2017-11-28T13:18:58.904Z,91.70
2017-11-28T13:21:26.714Z,89.60
2017-11-28T13:23:55.254Z,90.10
2017-11-28T13:26:23.079Z,90.20
2017-11-28T13:28:51.350Z,90.20
2017-11-28T13:31:19.113Z,91.40
2017-11-28T13:33:46.863Z,90.30
2017-11-28T13:36:15.494Z,91.60
2017-11-28T13:38:43.252Z,91.70
2017-11-28T13:41:11.097Z,91.50
2017-11-28T13:43:38.924Z,92.50
2017-11-28T13:46:08.233Z,92.50
2017-11-28T13:48:36.755Z,92.30
2017-11-28T13:51:04.559Z,92.20
2017-11-28T13:53:32.320Z,93.10
2017-11-28T13:56:00.852Z,93.00
2017-11-28T13:58:28.685Z,93.10
2017-11-28T14:00:57.226Z,91.90
2017-11-28T14:03:25.005Z,91.90
2017-11-28T14:05:52.817Z,91.20
2017-11-28T14:08:20.563Z,92.70
2017-11-28T14:10:48.307Z,92.60
2017-11-28T14:13:16.903Z,92.40
2017-11-28T14:15:44.659Z,92.40
2017-11-28T14:18:12.443Z,93.40
2017-11-28T14:20:45.884Z,92.30
2017-11-28T14:36:54.709Z,94.10
2017-11-28T14:39:31.571Z,93.60
2017-11-28T14:42:17.919Z,94.50
2017-11-28T14:45:01.472Z,94.50
2017-11-28T14:47:30.070Z,93.70
2017-11-28T14:49:57.847Z,93.70
2017-11-28T14:52:27.981Z,94.70
2017-11-28T14:55:01.541Z,94.70
2017-11-28T14:57:29.318Z,95.20
2017-11-28T15:00:03.580Z,97.30
2017-11-28T15:02:36.901Z,97.20
2017-11-28T15:05:10.294Z,97.10
2017-11-28T15:07:54.829Z,98.70
2017-11-28T15:10:38.360Z,98.20
2017-11-28T15:13:11.820Z,97.30
2017-11-28T15:15:45.211Z,96.70
2017-11-28T15:18:29.734Z,97.90
2017-11-28T15:21:02.416Z,97.00
2017-11-28T15:23:31.138Z,98.60
2017-11-28T15:26:00.601Z,99.40
2017-11-28T15:28:30.907Z,98.20
2017-11-28T15:30:58.680Z,98.50
2017-11-28T15:33:26.444Z,97.70
2017-11-28T15:35:54.266Z,97.80
2017-11-28T15:38:22.056Z,97.00
2017-11-28T15:40:49.824Z,97.80
2017-11-28T15:43:17.650Z,97.70
2017-11-28T15:45:45.423Z,97.70
2017-11-28T15:48:13.196Z,98.10
2017-11-28T15:50:41.011Z,97.50
2017-11-28T15:53:08.772Z,98.70
2017-11-28T15:55:36.526Z,99.40
2017-11-28T15:58:05.108Z,99.10
2017-11-28T16:00:33.631Z,98.50
2017-11-28T16:03:01.411Z,98.50
2017-11-28T16:05:29.244Z,98.80
2017-11-28T16:07:57.007Z,98.10
2017-11-28T16:10:24.817Z,96.80
2017-11-28T16:12:52.642Z,96.50
2017-11-28T16:15:20.421Z,96.40
2017-11-28T16:17:48.180Z,95.80
2017-11-28T16:20:15.995Z,95.90
2017-11-28T16:22:43.759Z,96.40
2017-11-28T16:25:11.515Z,97.20
2017-11-28T16:27:40.097Z,97.20
2017-11-28T16:30:07.888Z,97.20
2017-11-28T16:32:35.660Z,97.10
2017-11-28T16:35:04.246Z,97.30
2017-11-28T16:37:32.004Z,97.30
2017-11-28T16:39:59.776Z,97.40
2017-11-28T16:42:27.599Z,97.70
2017-11-28T16:44:55.406Z,97.10
2017-11-28T16:47:23.288Z,97.40
2017-11-28T16:49:51.139Z,97.60
2017-11-28T16:52:18.920Z,97.00
2017-11-28T16:54:46.691Z,97.70
2017-11-28T16:57:15.276Z,97.60
2017-11-28T16:59:43.833Z,96.10
2017-11-28T17:02:12.872Z,96.10
2017-11-28T17:04:40.706Z,96.60
2017-11-28T17:07:09.267Z,95.40
2017-11-28T17:09:37.047Z,95.40
2017-11-28T17:12:05.626Z,95.40
2017-11-28T17:14:34.168Z,96.60
2017-11-28T17:17:02.793Z,96.60
2017-11-28T17:19:30.651Z,95.80
2017-11-28T17:21:59.182Z,96.10
2017-11-28T17:24:27.072Z,96.10
2017-11-28T17:26:55.790Z,96.80
2017-11-28T17:29:24.312Z,96.10
2017-11-28T17:31:52.081Z,96.10
2017-11-28T17:34:21.135Z,96.80
2017-11-28T17:36:49.182Z,97.40
2017-11-28T17:39:17.031Z,97.70
2017-11-28T17:41:44.854Z,97.90
2017-11-28T17:44:12.629Z,97.30
2017-11-28T17:46:40.448Z,98.00
2017-11-28T17:49:08.284Z,98.70
2017-11-28T17:51:36.085Z,98.30
2017-11-28T17:54:04.690Z,97.20
2017-11-28T17:56:32.699Z,97.10
2017-11-28T17:59:00.613Z,96.00
2017-11-28T18:01:28.529Z,96.50
2017-11-28T18:03:57.251Z,95.70
2017-11-28T18:06:25.087Z,95.60
2017-11-28T18:08:53.676Z,95.40
2017-11-28T18:11:22.270Z,96.20
2017-11-28T18:13:50.044Z,96.20
2017-11-28T18:16:17.851Z,95.70
2017-11-28T18:18:45.665Z,95.70
2017-11-28T18:21:13.444Z,96.10
2017-11-28T18:23:41.209Z,96.20
2017-11-28T18:26:09.025Z,96.00
2017-11-28T18:28:37.556Z,96.90
2017-11-28T18:31:05.320Z,96.90
2017-11-28T18:33:33.148Z,97.00
2017-11-28T18:36:00.912Z,96.50
2017-11-28T18:38:28.696Z,96.40
2017-11-28T18:40:56.544Z,96.10
2017-11-28T18:43:24.428Z,95.80
2017-11-28T18:45:52.224Z,96.30
2017-11-28T18:48:20.264Z,96.30
2017-11-28T18:50:48.128Z,96.10
2017-11-28T18:53:15.938Z,97.20
2017-11-28T18:55:44.536Z,99.10
2017-11-28T18:58:12.357Z,99.10
2017-11-28T19:00:40.152Z,99.90
2017-11-28T19:03:08.733Z,99.90
2017-11-28T19:05:37.323Z,99.90
2017-11-28T19:08:05.155Z,99.90
2017-11-28T19:10:33.299Z,99.90
2017-11-28T19:13:01.158Z,99.90
2017-11-28T19:15:29.004Z,99.90
2017-11-28T19:17:56.876Z,99.90
2017-11-28T19:20:24.683Z,99.90
2017-11-28T19:22:52.493Z,99.90
2017-11-28T19:25:20.315Z,99.90
2017-11-28T19:27:48.840Z,99.90
2017-11-28T19:30:16.608Z,99.90
2017-11-28T19:32:44.712Z,99.90
2017-11-28T19:35:12.517Z,99.90
2017-11-28T19:37:40.303Z,99.90
2017-11-28T19:40:08.156Z,99.90
2017-11-28T19:42:35.927Z,99.90
2017-11-28T19:45:03.691Z,99.90
2017-11-28T19:47:31.520Z,99.40
2017-11-28T19:50:00.347Z,97.50
2017-11-28T19:52:28.150Z,97.60
2017-11-28T19:54:56.848Z,96.10
2017-11-28T19:57:25.451Z,95.70
2017-11-28T19:59:53.206Z,95.70
2017-11-28T20:02:21.046Z,95.80
2017-11-28T20:04:49.563Z,96.40
2017-11-28T20:07:17.321Z,96.50
2017-11-28T20:09:45.125Z,95.80
2017-11-28T20:12:12.891Z,95.20
2017-11-28T20:14:40.648Z,96.40
2017-11-28T20:17:08.471Z,95.80
2017-11-28T20:19:36.268Z,95.40
2017-11-28T20:22:04.051Z,95.80
2017-11-28T20:24:31.866Z,96.40
2017-11-28T20:26:59.631Z,96.50
2017-11-28T20:29:27.404Z,97.40
2017-11-28T20:31:55.601Z,98.10
2017-11-28T20:34:23.421Z,98.70
2017-11-28T20:36:51.172Z,98.40
2017-11-28T20:39:19.006Z,98.50
2017-11-28T20:41:47.596Z,98.90
2017-11-28T20:44:16.124Z,99.00
2017-11-28T20:46:43.983Z,99.00
2017-11-28T20:49:17.275Z,99.00
2017-11-28T20:51:45.152Z,98.70
2017-11-28T20:54:12.942Z,99.90
2017-11-28T20:56:41.503Z,99.90
2017-11-28T20:59:09.417Z,99.90
2017-11-28T21:04:14.237Z,99.90
2017-11-28T21:06:42.794Z,99.90
2017-11-28T21:09:10.623Z,99.90
2017-11-28T21:11:38.499Z,99.80
2017-11-28T21:14:06.311Z,99.80
2017-11-28T21:16:34.864Z,99.70
2017-11-28T21:19:02.687Z,99.70
2017-11-28T21:21:30.477Z,99.90
2017-11-28T21:23:58.311Z,99.90
2017-11-28T21:26:26.452Z,99.90
2017-11-28T21:28:54.999Z,99.90
2017-11-28T21:31:22.815Z,99.90
2017-11-28T21:33:50.634Z,99.90
2017-11-28T21:36:19.175Z,99.90
2017-11-28T21:38:46.932Z,99.90
2017-11-28T21:41:14.753Z,99.90
2017-11-28T21:43:45.116Z,99.90
2017-11-28T21:59:46.571Z,99.90
2017-11-28T22:02:15.148Z,99.90
2017-11-28T22:04:42.899Z,99.90
2017-11-28T22:07:10.703Z,99.40
2017-11-28T22:09:38.627Z,99.90
2017-11-28T22:12:06.757Z,99.90
2017-11-28T22:14:34.583Z,99.90
2017-11-28T22:17:03.114Z,99.90
2017-11-28T22:19:30.883Z,99.90
2017-11-28T22:21:58.712Z,99.90
2017-11-28T22:24:26.488Z,99.90
2017-11-28T22:26:54.244Z,99.90
2017-11-28T22:29:22.056Z,99.90
2017-11-28T22:31:49.817Z,99.90
2017-11-28T22:34:17.586Z,99.90
2017-11-28T22:36:45.429Z,99.90
2017-11-28T22:39:13.955Z,99.90
2017-11-28T22:41:41.715Z,99.90
2017-11-28T22:44:10.299Z,99.90
2017-11-28T22:46:38.078Z,99.90
2017-11-28T22:49:05.847Z,99.90
2017-11-28T22:51:33.672Z,99.90
2017-11-28T22:54:02.195Z,99.90
2017-11-28T22:56:29.960Z,99.90
2017-11-28T22:58:57.794Z,99.90
2017-11-28T23:01:25.579Z,99.90
2017-11-28T23:03:53.359Z,99.90
2017-11-28T23:06:21.173Z,99.90
2017-11-28T23:08:49.716Z,99.90
2017-11-28T23:11:17.472Z,99.90
2017-11-28T23:13:57.083Z,99.90
2017-11-28T23:16:24.845Z,99.90
2017-11-28T23:18:52.612Z,99.90
2017-11-28T23:21:20.431Z,99.90
2017-11-28T23:23:48.946Z,99.90
2017-11-28T23:26:16.773Z,99.90
2017-11-28T23:28:45.350Z,99.90
2017-11-28T23:31:13.924Z,99.90
2017-11-28T23:33:42.455Z,99.90
2017-11-28T23:36:10.268Z,99.90
2017-11-28T23:38:38.804Z,99.90
2017-11-28T23:41:06.563Z,99.90
2017-11-28T23:43:34.383Z,99.90
2017-11-28T23:46:02.924Z,99.90
2017-11-28T23:48:30.708Z,99.90
2017-11-28T23:50:58.539Z,99.90
2017-11-28T23:53:26.319Z,99.90
2017-11-28T23:55:54.073Z,99.90
2017-11-28T23:58:21.946Z,99.90
